createdAt,value
2022-11-22T00:01:23.395Z,0.15
2022-11-22T00:03:51.750Z,0.26
2022-11-22T00:06:20.112Z,0.29
2022-11-22T00:08:48.423Z,0.36
2022-11-22T00:11:16.813Z,0.43
2022-11-22T00:13:45.132Z,0.52
2022-11-22T00:16:14.816Z,0.58
2022-11-22T00:18:43.408Z,0.61
2022-11-22T00:21:11.767Z,0.65
2022-11-22T00:23:40.472Z,0.70
2022-11-22T00:26:12.072Z,0.70
2022-11-22T00:28:40.820Z,0.73
2022-11-22T00:31:09.167Z,0.80
2022-11-22T00:33:38.856Z,0.79
2022-11-22T00:36:07.351Z,0.80
2022-11-22T00:38:35.671Z,0.76
2022-11-22T00:41:04.045Z,0.84
2022-11-22T00:43:32.670Z,0.85
2022-11-22T00:46:01.462Z,0.84
2022-11-22T00:48:30.090Z,0.84
2022-11-22T00:51:00.049Z,0.81
2022-11-22T00:53:28.359Z,0.83
2022-11-22T00:55:56.679Z,0.86
2022-11-22T00:58:24.980Z,0.86
2022-11-22T01:00:56.497Z,0.80
2022-11-22T01:03:26.022Z,0.84
2022-11-22T01:05:54.619Z,0.86
2022-11-22T01:08:24.635Z,0.90
2022-11-22T01:10:58.407Z,0.93
2022-11-22T01:13:28.092Z,0.94
2022-11-22T01:16:01.404Z,0.97
2022-11-22T01:18:30.390Z,0.97
2022-11-22T01:20:59.378Z,0.98
2022-11-22T01:23:29.107Z,0.98
2022-11-22T01:25:57.604Z,0.99
2022-11-22T01:28:26.188Z,0.97
2022-11-22T01:30:55.552Z,1.04
2022-11-22T01:33:23.932Z,1.04
2022-11-22T01:35:54.224Z,1.02
2022-11-22T01:38:22.846Z,1.05
2022-11-22T01:40:52.923Z,1.06
2022-11-22T01:43:23.518Z,1.10
2022-11-22T01:45:54.939Z,1.09
2022-11-22T01:48:37.731Z,1.10
2022-11-22T01:51:15.798Z,1.09
2022-11-22T01:53:44.690Z,1.11
2022-11-22T01:56:18.434Z,1.16
2022-11-22T01:58:51.589Z,1.13
2022-11-22T02:01:20.521Z,1.11
2022-11-22T02:03:52.931Z,1.11
2022-11-22T02:06:22.667Z,1.08
2022-11-22T02:09:00.083Z,1.09
2022-11-22T02:11:34.079Z,1.04
2022-11-22T02:14:04.707Z,1.00
2022-11-22T02:16:35.563Z,0.97
2022-11-22T02:19:05.072Z,0.99
2022-11-22T02:21:34.094Z,1.01
2022-11-22T02:24:13.317Z,1.01
2022-11-22T02:26:43.156Z,1.09
2022-11-22T02:29:12.887Z,1.07
2022-11-22T02:31:44.530Z,1.09
2022-11-22T02:34:14.423Z,1.12
2022-11-22T02:36:48.559Z,1.10
2022-11-22T02:39:23.715Z,1.10
2022-11-22T02:41:54.990Z,1.12
2022-11-22T02:44:24.387Z,1.15
2022-11-22T02:46:56.509Z,1.11
2022-11-22T02:49:26.680Z,1.15
2022-11-22T02:51:55.323Z,1.18
2022-11-22T02:54:23.669Z,1.19
2022-11-22T02:56:53.251Z,1.19
2022-11-22T02:59:21.843Z,1.23
2022-11-22T03:01:50.677Z,1.25
2022-11-22T03:04:25.533Z,1.27
2022-11-22T03:06:56.122Z,1.30
2022-11-22T03:09:25.512Z,1.30
2022-11-22T03:11:55.750Z,1.34
2022-11-22T03:14:24.222Z,1.34
2022-11-22T03:16:53.451Z,1.35
2022-11-22T03:19:22.286Z,1.35
2022-11-22T03:21:51.346Z,1.37
2022-11-22T03:24:20.484Z,1.33
2022-11-22T03:26:50.167Z,1.33
2022-11-22T03:29:20.233Z,1.33
2022-11-22T03:31:48.634Z,1.35
2022-11-22T03:34:17.158Z,1.30
2022-11-22T03:36:45.975Z,1.28
2022-11-22T03:39:14.286Z,1.29
2022-11-22T03:41:42.879Z,1.35
2022-11-22T03:44:11.337Z,1.34
2022-11-22T03:46:41.125Z,1.34
2022-11-22T03:49:09.402Z,1.33
2022-11-22T03:51:37.682Z,1.32
2022-11-22T03:54:06.581Z,1.27
2022-11-22T03:56:34.875Z,1.26
2022-11-22T03:59:03.287Z,1.27
2022-11-22T04:01:31.988Z,1.28
2022-11-22T04:04:01.741Z,1.29
2022-11-22T04:06:30.055Z,1.27
2022-11-22T04:08:58.405Z,1.27
2022-11-22T04:11:26.878Z,1.27
2022-11-22T04:14:12.883Z,1.32
2022-11-22T04:16:41.417Z,1.33
2022-11-22T04:19:11.364Z,1.27
2022-11-22T04:21:38.726Z,1.30
2022-11-22T04:24:27.546Z,1.27
2022-11-22T04:26:56.823Z,1.25
2022-11-22T04:29:25.917Z,1.24
2022-11-22T04:32:11.763Z,1.20
2022-11-22T04:34:41.544Z,1.23
2022-11-22T04:37:09.909Z,1.22
2022-11-22T04:39:38.431Z,1.17
2022-11-22T04:42:24.683Z,1.12
2022-11-22T04:44:53.069Z,1.13
2022-11-22T04:47:38.615Z,1.16
2022-11-22T04:50:24.134Z,1.18
2022-11-22T04:52:55.144Z,1.16
2022-11-22T04:55:24.017Z,1.14
2022-11-22T04:57:58.868Z,1.16
2022-11-22T05:00:29.025Z,1.17
2022-11-22T05:02:57.654Z,1.12
2022-11-22T05:05:28.350Z,1.10
2022-11-22T05:07:56.949Z,1.11
2022-11-22T05:10:27.074Z,1.05
2022-11-22T05:12:57.187Z,1.00
2022-11-22T05:15:25.638Z,0.96
2022-11-22T05:17:54.256Z,0.90
2022-11-22T05:20:22.562Z,0.91
2022-11-22T05:23:09.867Z,0.91
2022-11-22T05:25:38.228Z,0.85
2022-11-22T05:28:06.783Z,0.83
2022-11-22T05:30:35.169Z,0.81
2022-11-22T05:33:03.577Z,0.79
2022-11-22T05:35:32.227Z,0.79
2022-11-22T05:38:02.253Z,0.78
2022-11-22T05:40:30.590Z,0.75
2022-11-22T05:42:59.477Z,0.77
2022-11-22T05:45:28.630Z,0.78
2022-11-22T05:47:57.872Z,0.75
2022-11-22T05:50:26.545Z,0.72
2022-11-22T05:53:03.899Z,0.70
2022-11-22T05:55:32.599Z,0.73
2022-11-22T05:58:02.182Z,0.70
2022-11-22T06:00:31.763Z,0.67
2022-11-22T06:03:05.032Z,0.65
2022-11-22T06:05:34.311Z,0.59
2022-11-22T06:08:04.409Z,0.54
2022-11-22T06:10:34.368Z,0.49
2022-11-22T06:13:02.720Z,0.40
2022-11-22T06:15:31.804Z,0.38
2022-11-22T06:18:00.045Z,0.34
2022-11-22T06:20:28.564Z,0.29
2022-11-22T06:22:59.956Z,0.23
2022-11-22T06:25:29.810Z,0.15
2022-11-22T06:28:00.688Z,0.14
2022-11-22T06:30:29.002Z,0.12
2022-11-22T06:32:59.054Z,0.17
2022-11-22T06:35:27.357Z,0.14
2022-11-22T06:38:00.524Z,0.10
2022-11-22T06:40:30.601Z,0.09
2022-11-22T06:42:58.885Z,0.16
2022-11-22T06:45:27.275Z,0.12
2022-11-22T06:47:55.878Z,0.12
2022-11-22T06:50:24.150Z,0.15
2022-11-22T06:52:52.826Z,0.20
2022-11-22T06:55:48.567Z,0.26
2022-11-22T06:58:10.948Z,0.29
2022-11-22T07:00:39.411Z,0.34
2022-11-22T07:03:07.713Z,0.45
2022-11-22T07:05:36.377Z,0.54
2022-11-22T07:08:11.978Z,0.68
2022-11-22T07:10:42.243Z,0.77
2022-11-22T07:13:13.398Z,0.89
2022-11-22T07:15:42.106Z,1.00
2022-11-22T07:18:10.807Z,1.13
2022-11-22T07:20:39.132Z,1.15
2022-11-22T07:23:07.417Z,1.18
2022-11-22T07:25:35.776Z,1.30
2022-11-22T07:28:04.058Z,1.43
2022-11-22T07:30:33.704Z,1.52
2022-11-22T07:33:01.951Z,1.56
2022-11-22T07:35:30.859Z,1.65
2022-11-22T07:37:59.228Z,1.63
2022-11-22T07:40:27.649Z,1.76
2022-11-22T07:42:58.625Z,1.81
2022-11-22T07:45:27.749Z,1.83
2022-11-22T07:48:00.490Z,1.92
2022-11-22T07:50:29.667Z,2.02
2022-11-22T07:52:58.308Z,2.05
2022-11-22T07:55:27.740Z,2.13
2022-11-22T07:57:59.376Z,2.27
2022-11-22T08:00:29.581Z,2.37
2022-11-22T08:02:59.476Z,2.53
2022-11-22T08:05:28.275Z,2.58
2022-11-22T08:07:56.675Z,2.72
2022-11-22T08:10:25.017Z,2.84
2022-11-22T08:12:53.307Z,2.84
2022-11-22T08:15:22.065Z,2.80
2022-11-22T08:17:50.332Z,2.93
2022-11-22T08:20:20.148Z,3.16
2022-11-22T08:22:48.531Z,3.08
2022-11-22T08:25:17.020Z,2.99
2022-11-22T08:27:45.427Z,3.02
2022-11-22T08:30:14.670Z,3.19
2022-11-22T08:32:43.354Z,3.30
2022-11-22T08:35:11.722Z,3.53
2022-11-22T08:37:41.408Z,3.63
2022-11-22T08:40:11.262Z,3.81
2022-11-22T08:42:39.768Z,3.83
2022-11-22T08:45:09.382Z,3.99
2022-11-22T08:47:38.932Z,4.28
2022-11-22T08:50:09.479Z,4.40
2022-11-22T08:52:38.143Z,4.31
2022-11-22T08:55:09.748Z,4.09
2022-11-22T08:57:38.102Z,3.91
2022-11-22T09:00:08.047Z,3.89
2022-11-22T09:02:36.427Z,4.00
2022-11-22T09:05:05.348Z,3.98
2022-11-22T09:10:23.709Z,4.04
2022-11-22T09:12:52.509Z,4.15
2022-11-22T09:15:20.897Z,4.22
2022-11-22T09:17:49.241Z,4.12
2022-11-22T09:20:18.245Z,4.05
2022-11-22T09:22:46.583Z,4.15
2022-11-22T09:25:14.950Z,4.08
2022-11-22T09:27:44.665Z,4.01
2022-11-22T09:30:13.840Z,4.11
2022-11-22T09:32:44.817Z,4.39
2022-11-22T09:35:13.158Z,4.59
2022-11-22T09:37:41.477Z,4.76
2022-11-22T09:40:11.879Z,4.75
2022-11-22T09:43:06.451Z,4.65
2022-11-22T09:46:09.522Z,4.95
2022-11-22T09:49:01.125Z,5.36
2022-11-22T09:51:38.451Z,5.57
2022-11-22T09:54:12.050Z,5.88
2022-11-22T09:56:42.348Z,5.99
2022-11-22T09:59:20.825Z,5.67
2022-11-22T10:01:56.354Z,5.51
2022-11-22T10:04:30.816Z,5.35
2022-11-22T10:07:02.791Z,5.47
2022-11-22T10:09:41.077Z,5.44
2022-11-22T10:12:18.776Z,5.57
2022-11-22T10:14:59.840Z,5.48
2022-11-22T10:17:42.830Z,5.28
2022-11-22T10:20:17.329Z,5.27
2022-11-22T10:22:46.184Z,5.16
2022-11-22T10:25:21.520Z,5.28
2022-11-22T10:27:59.065Z,5.21
2022-11-22T10:30:40.489Z,4.90
2022-11-22T10:33:19.426Z,4.84
2022-11-22T10:36:08.609Z,4.77
2022-11-22T10:38:54.779Z,4.86
2022-11-22T10:41:45.543Z,5.11
2022-11-22T10:44:25.727Z,5.21
2022-11-22T10:47:12.028Z,5.30
2022-11-22T10:49:57.204Z,5.33
2022-11-22T10:52:38.923Z,5.34
2022-11-22T10:55:24.531Z,5.45
2022-11-22T10:58:07.537Z,5.41
2022-11-22T11:00:41.894Z,5.47
2022-11-22T11:03:31.144Z,5.55
2022-11-22T11:06:24.307Z,5.62
2022-11-22T11:09:55.010Z,5.54
2022-11-22T11:11:53.726Z,5.57
2022-11-22T11:14:32.309Z,5.53
2022-11-22T11:17:02.611Z,5.43
2022-11-22T11:19:40.177Z,5.33
2022-11-22T11:22:42.826Z,5.46
2022-11-22T11:25:31.831Z,5.53
2022-11-22T11:28:06.701Z,5.48
2022-11-22T11:30:41.708Z,5.74
2022-11-22T11:33:26.895Z,6.05
2022-11-22T11:36:04.439Z,5.99
2022-11-22T11:38:39.005Z,6.10
2022-11-22T11:41:29.011Z,6.24
2022-11-22T11:43:59.377Z,6.05
2022-11-22T11:46:30.031Z,5.88
2022-11-22T11:49:12.611Z,5.67
2022-11-22T11:51:45.016Z,5.82
2022-11-22T11:54:19.836Z,5.83
2022-11-22T11:56:51.923Z,5.93
2022-11-22T11:59:23.102Z,5.82
2022-11-22T12:02:03.618Z,5.86
2022-11-22T12:04:36.908Z,5.81
2022-11-22T12:07:20.405Z,5.71
2022-11-22T12:09:51.620Z,5.72
2022-11-22T12:12:43.486Z,5.76
2022-11-22T12:15:22.257Z,6.00
2022-11-22T12:18:01.402Z,6.12
2022-11-22T12:20:43.408Z,6.20
2022-11-22T12:23:25.544Z,6.16
2022-11-22T12:25:57.486Z,6.17
2022-11-22T12:28:29.045Z,6.17
2022-11-22T12:31:04.509Z,6.19
2022-11-22T12:33:37.538Z,6.27
2022-11-22T12:36:13.906Z,6.13
2022-11-22T12:38:48.688Z,6.08
2022-11-22T12:41:21.558Z,6.08
2022-11-22T12:43:55.934Z,6.00
2022-11-22T12:46:30.652Z,5.88
2022-11-22T12:49:06.034Z,5.87
2022-11-22T12:51:46.380Z,5.96
2022-11-22T12:54:22.699Z,5.92
2022-11-22T12:56:57.439Z,5.88
2022-11-22T12:59:37.248Z,5.80
2022-11-22T13:02:20.731Z,5.76
2022-11-22T13:04:59.379Z,5.83
2022-11-22T13:07:49.684Z,5.83
2022-11-22T13:10:33.007Z,5.84
2022-11-22T13:13:05.708Z,5.82
2022-11-22T13:15:40.639Z,5.89
2022-11-22T13:18:12.649Z,5.95
2022-11-22T13:20:50.991Z,5.95
2022-11-22T13:23:50.045Z,6.03
2022-11-22T13:26:31.592Z,6.13
2022-11-22T13:29:20.380Z,6.02
2022-11-22T13:32:17.179Z,6.02
2022-11-22T13:35:08.665Z,6.15
2022-11-22T13:37:42.350Z,6.23
2022-11-22T13:40:24.440Z,6.21
2022-11-22T13:43:26.095Z,6.22
2022-11-22T13:45:58.620Z,6.18
2022-11-22T13:49:08.520Z,6.07
2022-11-22T13:51:56.397Z,6.09
2022-11-22T13:54:59.056Z,6.02
2022-11-22T13:57:37.191Z,6.00
2022-11-22T14:00:41.658Z,5.90
2022-11-22T14:03:38.083Z,5.86
2022-11-22T14:06:31.108Z,5.90
2022-11-22T14:09:41.452Z,5.92
2022-11-22T14:12:34.501Z,5.98
2022-11-22T14:15:40.531Z,5.95
2022-11-22T14:18:40.731Z,5.87
2022-11-22T14:21:18.652Z,5.75
2022-11-22T14:24:07.296Z,5.67
2022-11-22T14:26:52.049Z,5.62
2022-11-22T14:29:56.939Z,5.55
2022-11-22T14:32:27.513Z,5.47
2022-11-22T14:35:29.598Z,5.45
2022-11-22T14:38:28.969Z,5.43
2022-11-22T14:41:31.989Z,5.39
2022-11-22T14:44:03.328Z,5.33
2022-11-22T14:46:53.361Z,5.23
2022-11-22T14:49:36.011Z,5.13
2022-11-22T14:52:21.066Z,5.06
2022-11-22T14:54:55.397Z,4.95
2022-11-22T14:57:26.745Z,4.84
2022-11-22T15:00:17.881Z,4.76
2022-11-22T15:03:30.324Z,4.69
2022-11-22T15:09:23.873Z,4.57
2022-11-22T15:10:04.109Z,4.44
2022-11-22T15:13:06.898Z,4.33
2022-11-22T15:57:31.163Z,3.51
2022-11-22T16:00:01.050Z,3.53
2022-11-22T16:02:33.113Z,3.48
2022-11-22T16:06:05.265Z,3.46
2022-11-22T16:07:53.456Z,3.44
2022-11-22T16:10:33.020Z,3.45
2022-11-22T16:13:15.217Z,3.50
2022-11-22T16:15:43.695Z,3.47
2022-11-22T16:18:18.806Z,3.53
2022-11-22T16:21:01.553Z,3.54
2022-11-22T16:23:33.236Z,3.53
2022-11-22T16:26:19.242Z,3.50
2022-11-22T16:28:51.547Z,3.51
2022-11-22T16:31:24.590Z,3.47
2022-11-22T16:33:55.075Z,3.44
2022-11-22T16:36:25.376Z,3.45
2022-11-22T16:38:54.007Z,3.49
2022-11-22T16:41:25.610Z,3.56
2022-11-22T16:43:57.687Z,3.56
2022-11-22T16:46:26.341Z,3.59
2022-11-22T16:48:56.014Z,3.62
2022-11-22T16:51:28.470Z,3.60
2022-11-22T16:54:06.340Z,3.61
2022-11-22T16:56:35.036Z,3.57
2022-11-22T16:59:11.100Z,3.56
2022-11-22T17:01:43.468Z,3.58
2022-11-22T17:04:22.831Z,3.56
2022-11-22T17:06:51.801Z,3.56
2022-11-22T17:09:21.004Z,3.57
2022-11-22T17:11:50.410Z,3.53
2022-11-22T17:14:20.787Z,3.56
2022-11-22T17:16:49.449Z,3.54
2022-11-22T17:19:51.590Z,3.53
2022-11-22T17:22:07.064Z,3.46
2022-11-22T17:24:36.080Z,3.44
2022-11-22T17:27:04.739Z,3.44
2022-11-22T17:29:49.975Z,3.46
2022-11-22T17:32:19.254Z,3.43
2022-11-22T17:34:47.585Z,3.40
2022-11-22T17:37:15.974Z,3.38
2022-11-22T17:39:44.634Z,3.39
2022-11-22T17:42:15.223Z,3.43
2022-11-22T17:44:45.249Z,3.41
2022-11-22T17:47:13.577Z,3.41
2022-11-22T17:49:42.005Z,3.39
2022-11-22T17:52:10.388Z,3.40
2022-11-22T17:54:38.901Z,3.36
2022-11-22T17:57:07.186Z,3.34
2022-11-22T17:59:35.596Z,3.32
2022-11-22T18:02:05.330Z,3.28
2022-11-22T18:04:33.895Z,3.26
2022-11-22T18:07:02.832Z,3.25
2022-11-22T18:09:31.597Z,3.24
2022-11-22T18:12:00.121Z,3.23
2022-11-22T18:14:30.611Z,3.29
2022-11-22T18:17:00.423Z,3.27
2022-11-22T18:19:30.441Z,3.23
2022-11-22T18:21:59.000Z,3.17
2022-11-22T18:24:27.306Z,3.12
2022-11-22T18:26:55.909Z,3.11
2022-11-22T18:29:42.514Z,3.13
2022-11-22T18:32:12.352Z,3.20
2022-11-22T18:34:42.615Z,3.18
2022-11-22T18:37:10.971Z,3.13
2022-11-22T18:39:40.525Z,3.06
2022-11-22T18:42:13.517Z,3.02
2022-11-22T18:44:42.356Z,2.93
2022-11-22T18:47:10.875Z,2.85
2022-11-22T18:49:39.210Z,2.79
2022-11-22T18:52:10.782Z,2.81
2022-11-22T18:54:42.532Z,2.79
2022-11-22T18:57:10.944Z,2.76
2022-11-22T18:59:39.793Z,2.72
2022-11-22T19:02:08.345Z,2.70
2022-11-22T19:04:36.644Z,2.64
2022-11-22T19:07:05.696Z,2.66
2022-11-22T19:09:35.424Z,2.58
2022-11-22T19:12:03.855Z,2.53
2022-11-22T19:14:32.461Z,2.50
2022-11-22T19:17:01.430Z,2.45
2022-11-22T19:19:32.293Z,2.39
2022-11-22T19:22:01.513Z,2.32
2022-11-22T19:24:30.746Z,2.32
2022-11-22T19:27:01.086Z,2.40
2022-11-22T19:29:29.996Z,2.38
2022-11-22T19:31:58.943Z,2.39
2022-11-22T19:34:29.434Z,2.35
2022-11-22T19:37:00.218Z,2.34
2022-11-22T19:39:29.545Z,2.30
2022-11-22T19:41:58.375Z,2.21
2022-11-22T19:44:28.214Z,2.20
2022-11-22T19:46:56.599Z,2.13
2022-11-22T19:49:25.452Z,2.13
2022-11-22T19:51:53.890Z,2.14
2022-11-22T19:54:22.276Z,2.12
2022-11-22T19:56:50.747Z,2.10
2022-11-22T19:59:19.116Z,2.04
2022-11-22T20:01:48.911Z,2.12
2022-11-22T20:04:17.384Z,2.17
2022-11-22T20:06:49.965Z,2.26
2022-11-22T20:09:18.741Z,2.31
2022-11-22T20:11:47.069Z,2.34
2022-11-22T20:14:15.809Z,2.35
2022-11-22T20:16:44.508Z,2.34
2022-11-22T20:19:15.360Z,2.38
2022-11-22T20:21:43.986Z,2.34
2022-11-22T20:24:14.158Z,2.40
2022-11-22T20:26:43.803Z,2.32
2022-11-22T20:29:15.185Z,2.36
2022-11-22T20:31:43.826Z,2.30
2022-11-22T20:34:15.089Z,2.29
2022-11-22T20:36:43.811Z,2.26
2022-11-22T20:39:12.329Z,2.25
2022-11-22T20:41:41.378Z,2.23
2022-11-22T20:44:13.759Z,2.28
2022-11-22T20:46:42.595Z,2.22
2022-11-22T20:49:11.446Z,2.23
2022-11-22T20:51:42.282Z,2.19
2022-11-22T20:54:12.045Z,2.14
2022-11-22T20:56:41.028Z,2.16
2022-11-22T20:59:09.672Z,2.18
2022-11-22T21:01:38.347Z,2.28
2022-11-22T21:04:07.551Z,2.37
2022-11-22T21:06:36.002Z,2.43
2022-11-22T21:09:05.787Z,2.43
2022-11-22T21:11:35.138Z,2.45
2022-11-22T21:14:03.872Z,2.47
2022-11-22T21:16:32.696Z,2.49
2022-11-22T21:19:04.966Z,2.47
2022-11-22T21:21:36.501Z,2.45
2022-11-22T21:24:08.537Z,2.44
2022-11-22T21:26:37.055Z,2.40
2022-11-22T21:29:15.978Z,2.38
2022-11-22T21:31:45.162Z,2.36
2022-11-22T21:34:13.878Z,2.26
2022-11-22T21:36:42.233Z,2.26
2022-11-22T21:39:11.859Z,2.28
2022-11-22T21:41:41.029Z,2.34
2022-11-22T21:44:11.078Z,2.32
2022-11-22T21:46:40.051Z,2.29
2022-11-22T21:49:08.904Z,2.23
2022-11-22T21:51:37.609Z,2.18
2022-11-22T21:54:06.605Z,2.18
2022-11-22T21:56:36.993Z,2.10
2022-11-22T21:59:05.864Z,2.04
2022-11-22T22:01:35.225Z,2.04
2022-11-22T22:04:04.437Z,1.97
2022-11-22T22:06:33.141Z,1.92
2022-11-22T22:09:01.943Z,1.90
2022-11-22T22:11:30.274Z,1.87
2022-11-22T22:13:59.979Z,1.83
2022-11-22T22:16:28.323Z,1.82
2022-11-22T22:18:56.645Z,1.84
2022-11-22T22:21:25.265Z,1.86
2022-11-22T22:23:54.457Z,1.86
2022-11-22T22:26:22.739Z,1.89
2022-11-22T22:28:53.061Z,1.94
2022-11-22T22:31:26.912Z,1.96
2022-11-22T22:33:57.644Z,2.00
2022-11-22T22:36:28.374Z,2.00
2022-11-22T22:38:56.784Z,2.05
2022-11-22T22:41:25.089Z,2.06
2022-11-22T22:43:53.724Z,2.07
2022-11-22T22:46:25.794Z,2.11
2022-11-22T22:48:56.203Z,2.18
2022-11-22T22:51:32.375Z,2.27
2022-11-22T22:54:02.630Z,2.36
2022-11-22T22:56:32.334Z,2.45
2022-11-22T22:59:01.616Z,2.45
2022-11-22T23:01:32.596Z,2.46
2022-11-22T23:04:02.967Z,2.45
2022-11-22T23:06:34.274Z,2.43
2022-11-22T23:09:04.111Z,2.45
2022-11-22T23:11:53.003Z,2.43
2022-11-22T23:14:24.691Z,2.40
2022-11-22T23:16:57.925Z,2.39
2022-11-22T23:19:28.070Z,2.34
2022-11-22T23:21:57.315Z,2.32
2022-11-22T23:24:25.687Z,2.30
2022-11-22T23:26:54.005Z,2.29
2022-11-22T23:29:22.683Z,2.28
2022-11-22T23:31:51.298Z,2.26
2022-11-22T23:34:21.026Z,2.28
2022-11-22T23:36:49.739Z,2.25
2022-11-22T23:39:18.060Z,2.22
2022-11-22T23:41:46.445Z,2.21
2022-11-22T23:44:15.141Z,2.22
2022-11-22T23:46:43.784Z,2.26
2022-11-22T23:49:13.131Z,2.28
2022-11-22T23:51:42.874Z,2.31
2022-11-22T23:54:12.053Z,2.34
2022-11-22T23:56:40.335Z,2.35
2022-11-22T23:59:08.786Z,2.32
